KAKO/AKO METAR and TAF weather

Enter ICAO airport designator
Station Type Date Time Source
KAKO METAR 2022/08/16 19:53 UTC NOAA

KAKO 161953Z AUTO 00000KT 10SM FEW038 SCT050 24/15 A3022 RMK AO2 SLP178 T02390150


Station Type Date Time Source
KAKO Decoded METAR 2022/08/16 19:53 UTC NOAA

COLORADO PLAINS REGIONAL, CO, United States (KAKO) 40-10N 103-13W 1421M
Aug 16, 2022 - 03:53 PM EDT / 2022.08.16 1953 UTC
Wind: Calm:0
Visibility: 10 mile(s):0
Sky conditions: partly cloudy
Temperature: 75.0 F (23.9 C)
Dew Point: 59.0 F (15.0 C)
Relative Humidity: 57%
Pressure (altimeter): 30.22 in. Hg (1023 hPa)
ob: KAKO 161953Z AUTO 00000KT 10SM FEW038 SCT050 24/15 A3022 RMK AO2 SLP178 T02390150
cycle: 20

Station Type Date Time Source
KAKO TAF UTC NOAA

Error!

Example: see airport list